sensor_id;sensor_type;location;lat;lon;timestamp;pressure;altitude;pressure_sealevel;temperature;humidity
70902;BME280;58548;47.210;8.618;2023-05-20T00:00:36;94095.28;;;20.83;36.18
70902;BME280;58548;47.210;8.618;2023-05-20T00:03:02;94094.22;;;20.84;36.68
70902;BME280;58548;47.210;8.618;2023-05-20T00:05:28;93973.72;;;20.15;36.11
70902;BME280;58548;47.210;8.618;2023-05-20T00:07:54;94061.19;;;20.70;36.04
70902;BME280;58548;47.210;8.618;2023-05-20T00:10:20;94081.47;;;20.81;36.30
70902;BME280;58548;47.210;8.618;2023-05-20T00:12:48;93998.94;;;20.17;36.00
70902;BME280;58548;47.210;8.618;2023-05-20T00:15:16;94001.34;;;20.19;36.59
70902;BME280;58548;47.210;8.618;2023-05-20T00:17:41;94088.72;;;20.63;36.31
70902;BME280;58548;47.210;8.618;2023-05-20T00:20:08;94068.38;;;20.42;36.24
70902;BME280;58548;47.210;8.618;2023-05-20T00:22:34;94058.66;;;20.25;36.38
70902;BME280;58548;47.210;8.618;2023-05-20T00:25:02;93966.25;;;19.57;36.21
70902;BME280;58548;47.210;8.618;2023-05-20T00:27:28;94066.97;;;20.07;36.65
70902;BME280;58548;47.210;8.618;2023-05-20T00:29:56;94007.09;;;19.61;36.48
70902;BME280;58548;47.210;8.618;2023-05-20T00:32:27;94076.66;;;19.96;36.51
70902;BME280;58548;47.210;8.618;2023-05-20T00:34:59;94024.47;;;19.52;36.92
70902;BME280;58548;47.210;8.618;2023-05-20T00:37:28;94066.09;;;19.79;37.38
70902;BME280;58548;47.210;8.618;2023-05-20T00:39:54;93968.13;;;19.12;37.23
70902;BME280;58548;47.210;8.618;2023-05-20T00:42:26;94056.19;;;19.69;37.24
70902;BME280;58548;47.210;8.618;2023-05-20T00:44:54;94049.72;;;19.59;37.79
70902;BME280;58548;47.210;8.618;2023-05-20T00:47:27;94036.09;;;19.51;37.20
70902;BME280;58548;47.210;8.618;2023-05-20T00:49:56;93975.69;;;19.03;37.81
70902;BME280;58548;47.210;8.618;2023-05-20T00:52:24;93973.75;;;18.98;37.92
70902;BME280;58548;47.210;8.618;2023-05-20T00:54:51;94056.88;;;19.59;38.11
70902;BME280;58548;47.210;8.618;2023-05-20T00:57:20;93959.56;;;19.05;37.65
70902;BME280;58548;47.210;8.618;2023-05-20T00:59:52;94037.34;;;19.65;37.74
70902;BME280;58548;47.210;8.618;2023-05-20T01:02:18;94010.16;;;19.53;38.20
70902;BME280;58548;47.210;8.618;2023-05-20T01:04:44;94053.28;;;19.70;37.80
70902;BME280;58548;47.210;8.618;2023-05-20T01:07:16;94051.72;;;19.69;37.91
70902;BME280;58548;47.210;8.618;2023-05-20T01:09:45;94053.28;;;19.70;37.82
70902;BME280;58548;47.210;8.618;2023-05-20T01:14:55;94046.09;;;19.66;38.29
70902;BME280;58548;47.210;8.618;2023-05-20T01:17:30;93978.59;;;19.24;37.72
70902;BME280;58548;47.210;8.618;2023-05-20T01:19:58;94041.41;;;19.73;37.88
70902;BME280;58548;47.210;8.618;2023-05-20T01:22:28;94007.59;;;19.58;37.80
70902;BME280;58548;47.210;8.618;2023-05-20T01:24:56;93957.47;;;19.29;37.36
70902;BME280;58548;47.210;8.618;2023-05-20T01:27:22;93975.16;;;19.46;37.82
70902;BME280;58548;47.210;8.618;2023-05-20T01:29:52;94046.75;;;20.00;38.44
70902;BME280;58548;47.210;8.618;2023-05-20T01:32:25;94024.16;;;19.93;38.19
70902;BME280;58548;47.210;8.618;2023-05-20T01:34:54;94046.06;;;20.10;38.40
70902;BME280;58548;47.210;8.618;2023-05-20T01:37:22;94024.50;;;20.01;38.32
70902;BME280;58548;47.210;8.618;2023-05-20T01:39:53;94044.25;;;20.16;38.49
70902;BME280;58548;47.210;8.618;2023-05-20T01:42:22;94046.69;;;20.17;38.67
70902;BME280;58548;47.210;8.618;2023-05-20T01:44:48;94008.66;;;20.07;38.38
70902;BME280;58548;47.210;8.618;2023-05-20T01:47:14;94011.38;;;20.12;38.15
70902;BME280;58548;47.210;8.618;2023-05-20T01:49:40;94024.16;;;20.20;37.84
70902;BME280;58548;47.210;8.618;2023-05-20T01:52:11;93929.13;;;19.52;38.30
70902;BME280;58548;47.210;8.618;2023-05-20T01:54:39;94038.50;;;20.24;37.75
70902;BME280;58548;47.210;8.618;2023-05-20T01:57:05;93974.06;;;19.91;37.72
70902;BME280;58548;47.210;8.618;2023-05-20T01:59:31;93927.13;;;19.64;38.27
70902;BME280;58548;47.210;8.618;2023-05-20T02:01:57;93936.19;;;19.68;37.87
70902;BME280;58548;47.210;8.618;2023-05-20T02:04:25;94029.56;;;20.30;38.35
70902;BME280;58548;47.210;8.618;2023-05-20T02:06:53;94020.03;;;20.34;37.78
70902;BME280;58548;47.210;8.618;2023-05-20T02:09:19;93926.72;;;19.78;38.31
70902;BME280;58548;47.210;8.618;2023-05-20T02:11:44;94010.53;;;20.39;37.69
70902;BME280;58548;47.210;8.618;2023-05-20T02:14:10;93898.56;;;19.71;38.19
70902;BME280;58548;47.210;8.618;2023-05-20T02:16:36;94013.22;;;20.44;37.99
70902;BME280;58548;47.210;8.618;2023-05-20T02:19:07;93991.38;;;20.31;38.07
70902;BME280;58548;47.210;8.618;2023-05-20T02:21:40;93924.25;;;19.93;37.67
70902;BME280;58548;47.210;8.618;2023-05-20T02:24:10;94004.22;;;20.45;37.83
70902;BME280;58548;47.210;8.618;2023-05-20T02:26:36;93904.25;;;19.80;37.66
70902;BME280;58548;47.210;8.618;2023-05-20T02:29:04;93904.75;;;19.77;37.74
70902;BME280;58548;47.210;8.618;2023-05-20T02:31:32;94012.72;;;20.47;38.32
70902;BME280;58548;47.210;8.618;2023-05-20T02:34:01;93994.59;;;20.39;38.17
70902;BME280;58548;47.210;8.618;2023-05-20T02:36:27;93982.06;;;20.29;37.55
70902;BME280;58548;47.210;8.618;2023-05-20T02:38:53;94000.97;;;20.38;38.08
70902;BME280;58548;47.210;8.618;2023-05-20T02:41:23;94016.63;;;20.39;37.98
70902;BME280;58548;47.210;8.618;2023-05-20T02:43:51;94007.84;;;20.33;37.55
70902;BME280;58548;47.210;8.618;2023-05-20T02:46:19;93915.53;;;19.70;37.66
70902;BME280;58548;47.210;8.618;2023-05-20T02:48:48;94004.31;;;20.28;38.02
70902;BME280;58548;47.210;8.618;2023-05-20T02:51:22;93983.25;;;20.11;38.18
70902;BME280;58548;47.210;8.618;2023-05-20T02:53:50;93997.63;;;20.20;38.30
70902;BME280;58548;47.210;8.618;2023-05-20T02:56:19;93998.63;;;20.14;38.33
70902;BME280;58548;47.210;8.618;2023-05-20T02:58:48;93952.22;;;19.84;38.15
70902;BME280;58548;47.210;8.618;2023-05-20T03:01:14;93999.16;;;20.11;38.25
70902;BME280;58548;47.210;8.618;2023-05-20T03:03:44;93904.94;;;19.43;37.78
70902;BME280;58548;47.210;8.618;2023-05-20T03:06:12;93906.72;;;19.37;38.23
70902;BME280;58548;47.210;8.618;2023-05-20T03:08:43;93897.13;;;19.31;37.94
70902;BME280;58548;47.210;8.618;2023-05-20T03:11:09;93992.53;;;19.86;38.39
70902;BME280;58548;47.210;8.618;2023-05-20T03:13:35;93962.28;;;19.59;38.34
70902;BME280;58548;47.210;8.618;2023-05-20T03:16:06;93999.94;;;19.84;38.39
70902;BME280;58548;47.210;8.618;2023-05-20T03:18:31;93899.13;;;19.19;38.12
70902;BME280;58548;47.210;8.618;2023-05-20T03:20:57;93985.50;;;19.74;38.87
70902;BME280;58548;47.210;8.618;2023-05-20T03:23:26;93998.06;;;19.84;38.93
70902;BME280;58548;47.210;8.618;2023-05-20T03:25:52;93907.72;;;19.31;38.49
70902;BME280;58548;47.210;8.618;2023-05-20T03:28:20;93988.66;;;19.94;38.69
70902;BME280;58548;47.210;8.618;2023-05-20T03:30:48;93966.47;;;19.78;38.59
70902;BME280;58548;47.210;8.618;2023-05-20T03:33:14;93973.63;;;19.77;38.34
70902;BME280;58548;47.210;8.618;2023-05-20T03:35:40;93904.03;;;19.32;38.02
70902;BME280;58548;47.210;8.618;2023-05-20T03:38:08;93994.13;;;19.87;38.73
70902;BME280;58548;47.210;8.618;2023-05-20T03:40:34;93907.97;;;19.29;38.08
70902;BME280;58548;47.210;8.618;2023-05-20T03:43:00;93935.38;;;19.40;38.46
70902;BME280;58548;47.210;8.618;2023-05-20T03:45:26;93983.63;;;19.70;38.16
70902;BME280;58548;47.210;8.618;2023-05-20T03:47:54;93891.00;;;19.03;37.97
70902;BME280;58548;47.210;8.618;2023-05-20T03:50:20;93997.25;;;19.56;38.62
70902;BME280;58548;47.210;8.618;2023-05-20T03:52:46;94001.19;;;19.54;38.00
70902;BME280;58548;47.210;8.618;2023-05-20T03:55:12;93887.84;;;18.84;37.85
70902;BME280;58548;47.210;8.618;2023-05-20T03:57:38;93994.47;;;19.46;38.10
70902;BME280;58548;47.210;8.618;2023-05-20T04:00:04;93992.56;;;19.41;38.11
70902;BME280;58548;47.210;8.618;2023-05-20T04:02:38;93994.09;;;19.37;38.52
70902;BME280;58548;47.210;8.618;2023-05-20T04:05:05;93988.75;;;19.32;37.75
70902;BME280;58548;47.210;8.618;2023-05-20T04:07:33;93910.72;;;18.73;38.49
70902;BME280;58548;47.210;8.618;2023-05-20T04:10:01;93871.75;;;18.46;38.36
70902;BME280;58548;47.210;8.618;2023-05-20T04:12:28;93987.81;;;19.21;38.33
70902;BME280;58548;47.210;8.618;2023-05-20T04:14:59;93987.81;;;19.21;38.55
70902;BME280;58548;47.210;8.618;2023-05-20T04:17:29;93951.88;;;19.03;38.39
70902;BME280;58548;47.210;8.618;2023-05-20T04:19:56;93937.34;;;18.89;38.41
70902;BME280;58548;47.210;8.618;2023-05-20T04:22:26;93944.44;;;18.83;38.30
70902;BME280;58548;47.210;8.618;2023-05-20T04:24:55;94000.75;;;19.18;38.02
70902;BME280;58548;47.210;8.618;2023-05-20T04:27:24;94006.69;;;19.25;38.44
70902;BME280;58548;47.210;8.618;2023-05-20T04:29:51;93981.59;;;19.10;38.23
70902;BME280;58548;47.210;8.618;2023-05-20T04:32:18;93996.66;;;19.27;38.76
70902;BME280;58548;47.210;8.618;2023-05-20T04:34:46;93997.72;;;19.31;38.03
70902;BME280;58548;47.210;8.618;2023-05-20T04:37:13;93983.94;;;19.29;38.57
70902;BME280;58548;47.210;8.618;2023-05-20T04:39:41;93989.31;;;19.34;38.44
70902;BME280;58548;47.210;8.618;2023-05-20T04:42:12;93897.63;;;18.83;38.31
70902;BME280;58548;47.210;8.618;2023-05-20T04:44:39;93988.44;;;19.51;38.95
70902;BME280;58548;47.210;8.618;2023-05-20T04:47:04;93818.06;;;18.46;38.17
70902;BME280;58548;47.210;8.618;2023-05-20T04:49:36;93913.28;;;19.07;38.37
70902;BME280;58548;47.210;8.618;2023-05-20T04:52:03;93949.09;;;19.37;38.50
70902;BME280;58548;47.210;8.618;2023-05-20T04:54:31;93997.41;;;19.72;38.96
70902;BME280;58548;47.210;8.618;2023-05-20T04:56:59;93973.22;;;19.63;38.87
70902;BME280;58548;47.210;8.618;2023-05-20T04:59:28;93987.66;;;19.78;38.78
70902;BME280;58548;47.210;8.618;2023-05-20T05:01:55;93895.53;;;19.30;38.61
70902;BME280;58548;47.210;8.618;2023-05-20T05:04:20;93986.34;;;20.02;38.42
70902;BME280;58548;47.210;8.618;2023-05-20T05:06:50;93934.13;;;19.76;38.79
70902;BME280;58548;47.210;8.618;2023-05-20T05:09:16;93903.28;;;19.64;38.37
70902;BME280;58548;47.210;8.618;2023-05-20T05:11:47;93982.22;;;20.17;38.37
70902;BME280;58548;47.210;8.618;2023-05-20T05:14:13;93907.97;;;19.84;38.08
70902;BME280;58548;47.210;8.618;2023-05-20T05:16:41;93902.84;;;20.00;38.22
70902;BME280;58548;47.210;8.618;2023-05-20T05:19:07;93899.44;;;20.04;38.01
70902;BME280;58548;47.210;8.618;2023-05-20T05:21:35;93962.41;;;20.62;38.41
70902;BME280;58548;47.210;8.618;2023-05-20T05:24:03;93985.19;;;20.91;37.46
70902;BME280;58548;47.210;8.618;2023-05-20T05:26:31;93982.31;;;21.03;37.59
70902;BME280;58548;47.210;8.618;2023-05-20T05:28:57;93973.38;;;21.14;37.52
70902;BME280;58548;47.210;8.618;2023-05-20T05:31:28;93941.44;;;21.04;36.90
70902;BME280;58548;47.210;8.618;2023-05-20T05:33:56;93879.50;;;20.77;36.77
70902;BME280;58548;47.210;8.618;2023-05-20T05:36:26;93833.22;;;20.58;36.89
70902;BME280;58548;47.210;8.618;2023-05-20T05:38:52;93972.44;;;21.51;36.87
70902;BME280;58548;47.210;8.618;2023-05-20T05:41:18;93962.88;;;21.50;36.93
70902;BME280;58548;47.210;8.618;2023-05-20T05:43:46;93957.06;;;21.59;36.58
70902;BME280;58548;47.210;8.618;2023-05-20T05:46:12;93923.31;;;21.49;36.58
70902;BME280;58548;47.210;8.618;2023-05-20T05:48:43;93884.97;;;21.29;36.51
70902;BME280;58548;47.210;8.618;2023-05-20T05:51:19;93981.91;;;22.06;36.01
70902;BME280;58548;47.210;8.618;2023-05-20T05:53:48;93898.09;;;21.62;35.89
70902;BME280;58548;47.210;8.618;2023-05-20T05:56:16;93957.19;;;22.16;35.97
70902;BME280;58548;47.210;8.618;2023-05-20T05:58:45;93895.47;;;22.03;35.73
70902;BME280;58548;47.210;8.618;2023-05-20T06:01:13;93886.72;;;22.23;35.52
70902;BME280;58548;47.210;8.618;2023-05-20T06:03:41;93970.75;;;22.92;35.01
70902;BME280;58548;47.210;8.618;2023-05-20T06:06:07;93882.44;;;22.48;34.99
70902;BME280;58548;47.210;8.618;2023-05-20T06:08:33;93853.13;;;22.64;34.52
70902;BME280;58548;47.210;8.618;2023-05-20T06:10:58;93840.84;;;22.78;34.34
70902;BME280;58548;47.210;8.618;2023-05-20T06:13:24;93950.75;;;23.65;34.05
70902;BME280;58548;47.210;8.618;2023-05-20T06:15:50;93954.59;;;23.99;34.02
70902;BME280;58548;47.210;8.618;2023-05-20T06:18:20;93948.00;;;24.26;33.96
70902;BME280;58548;47.210;8.618;2023-05-20T06:20:46;93958.16;;;24.58;32.79
70902;BME280;58548;47.210;8.618;2023-05-20T06:23:15;93956.09;;;24.79;32.77
70902;BME280;58548;47.210;8.618;2023-05-20T06:25:41;93920.94;;;24.72;31.79
70902;BME280;58548;47.210;8.618;2023-05-20T06:28:07;93873.97;;;24.42;31.36
70902;BME280;58548;47.210;8.618;2023-05-20T06:30:35;93884.91;;;24.40;31.12
70902;BME280;58548;47.210;8.618;2023-05-20T06:33:02;93962.94;;;24.91;31.19
70902;BME280;58548;47.210;8.618;2023-05-20T06:35:29;93868.44;;;24.33;31.43
70902;BME280;58548;47.210;8.618;2023-05-20T06:37:57;93871.41;;;24.26;31.66
70902;BME280;58548;47.210;8.618;2023-05-20T06:40:29;93864.31;;;24.16;31.61
70902;BME280;58548;47.210;8.618;2023-05-20T06:42:57;93951.00;;;24.83;30.82
70902;BME280;58548;47.210;8.618;2023-05-20T06:45:25;93944.41;;;24.75;31.40
70902;BME280;58548;47.210;8.618;2023-05-20T06:47:53;93963.13;;;24.70;31.32
70902;BME280;58548;47.210;8.618;2023-05-20T06:50:19;93911.59;;;24.40;31.33
70902;BME280;58548;47.210;8.618;2023-05-20T06:52:45;93904.72;;;24.34;31.90
70902;BME280;58548;47.210;8.618;2023-05-20T06:55:11;93880.63;;;24.09;31.42
70902;BME280;58548;47.210;8.618;2023-05-20T06:57:39;93942.91;;;24.59;31.08
70902;BME280;58548;47.210;8.618;2023-05-20T07:00:06;93943.91;;;24.68;31.41
70902;BME280;58548;47.210;8.618;2023-05-20T07:02:34;93840.94;;;24.03;31.47
70902;BME280;58548;47.210;8.618;2023-05-20T07:05:00;93939.63;;;24.72;31.52
70902;BME280;58548;47.210;8.618;2023-05-20T07:07:26;93862.25;;;24.08;30.95
70902;BME280;58548;47.210;8.618;2023-05-20T07:09:56;93940.84;;;24.56;31.16
70902;BME280;58548;47.210;8.618;2023-05-20T07:12:22;93863.03;;;24.08;31.43
70902;BME280;58548;47.210;8.618;2023-05-20T07:14:48;93914.00;;;24.42;31.15
70902;BME280;58548;47.210;8.618;2023-05-20T07:17:18;93942.09;;;24.63;31.08
70902;BME280;58548;47.210;8.618;2023-05-20T07:19:45;93852.13;;;24.05;30.78
70902;BME280;58548;47.210;8.618;2023-05-20T07:22:13;93932.72;;;24.66;31.07
70902;BME280;58548;47.210;8.618;2023-05-20T07:24:38;93848.06;;;24.13;31.58
70902;BME280;58548;47.210;8.618;2023-05-20T07:27:05;93933.22;;;24.68;30.88
70902;BME280;58548;47.210;8.618;2023-05-20T07:29:31;93930.00;;;24.76;30.85
70902;BME280;58548;47.210;8.618;2023-05-20T07:32:02;93895.72;;;24.54;31.05
70902;BME280;58548;47.210;8.618;2023-05-20T07:34:28;93851.59;;;24.08;30.68
70902;BME280;58548;47.210;8.618;2023-05-20T07:36:57;93875.78;;;24.17;30.87
70902;BME280;58548;47.210;8.618;2023-05-20T07:39:22;93929.00;;;24.62;30.83
70902;BME280;58548;47.210;8.618;2023-05-20T07:41:49;93835.66;;;23.98;31.19
70902;BME280;58548;47.210;8.618;2023-05-20T07:44:17;93904.63;;;24.44;31.22
70902;BME280;58548;47.210;8.618;2023-05-20T07:46:44;93920.47;;;24.60;31.37
70902;BME280;58548;47.210;8.618;2023-05-20T07:49:13;93928.41;;;24.75;30.58
70902;BME280;58548;47.210;8.618;2023-05-20T07:51:41;93902.78;;;24.74;31.40
70902;BME280;58548;47.210;8.618;2023-05-20T07:54:11;93849.94;;;24.42;30.19
70902;BME280;58548;47.210;8.618;2023-05-20T07:56:40;93926.34;;;25.16;31.09
70902;BME280;58548;47.210;8.618;2023-05-20T07:59:06;93831.78;;;24.68;30.24
70902;BME280;58548;47.210;8.618;2023-05-20T08:01:33;93830.53;;;24.84;30.02
70902;BME280;58548;47.210;8.618;2023-05-20T08:04:06;93847.28;;;24.90;30.15
70902;BME280;58548;47.210;8.618;2023-05-20T08:06:32;93922.81;;;25.44;30.02
70902;BME280;58548;47.210;8.618;2023-05-20T08:09:00;93884.06;;;25.42;30.08
70902;BME280;58548;47.210;8.618;2023-05-20T08:11:28;93844.03;;;25.37;30.42
70902;BME280;58548;47.210;8.618;2023-05-20T08:13:54;93837.84;;;25.41;28.92
70902;BME280;58548;47.210;8.618;2023-05-20T08:16:24;93910.41;;;25.92;28.63
70902;BME280;58548;47.210;8.618;2023-05-20T08:18:58;93901.72;;;26.00;28.41
70902;BME280;58548;47.210;8.618;2023-05-20T08:21:26;93839.25;;;25.58;28.16
70902;BME280;58548;47.210;8.618;2023-05-20T08:23:52;93843.50;;;25.59;28.39
70902;BME280;58548;47.210;8.618;2023-05-20T08:26:17;93838.28;;;25.68;29.25
70902;BME280;58548;47.210;8.618;2023-05-20T08:28:46;93827.72;;;25.77;28.35
70902;BME280;58548;47.210;8.618;2023-05-20T08:31:13;93917.94;;;26.42;28.96
70902;BME280;58548;47.210;8.618;2023-05-20T08:33:42;93910.28;;;26.69;28.22
70902;BME280;58548;47.210;8.618;2023-05-20T08:36:10;93833.63;;;26.26;28.30
70902;BME280;58548;47.210;8.618;2023-05-20T08:38:36;93898.66;;;26.73;28.43
70902;BME280;58548;47.210;8.618;2023-05-20T08:41:02;93917.66;;;26.91;27.62
70902;BME280;58548;47.210;8.618;2023-05-20T08:43:28;93828.31;;;26.40;28.48
70902;BME280;58548;47.210;8.618;2023-05-20T08:45:55;93837.16;;;26.54;28.12
70902;BME280;58548;47.210;8.618;2023-05-20T08:48:25;93914.09;;;27.23;27.46
70902;BME280;58548;47.210;8.618;2023-05-20T08:50:56;93845.00;;;26.92;27.49
70902;BME280;58548;47.210;8.618;2023-05-20T08:53:25;93918.66;;;27.51;27.33
70902;BME280;58548;47.210;8.618;2023-05-20T08:58:23;93895.22;;;27.43;27.47
70902;BME280;58548;47.210;8.618;2023-05-20T09:00:54;93903.47;;;27.46;27.55
70902;BME280;58548;47.210;8.618;2023-05-20T09:03:23;93895.00;;;27.39;27.82
70902;BME280;58548;47.210;8.618;2023-05-20T09:06:01;93902.94;;;27.44;27.36
70902;BME280;58548;47.210;8.618;2023-05-20T09:08:30;93905.13;;;27.42;27.40
70902;BME280;58548;47.210;8.618;2023-05-20T09:10:56;93870.81;;;27.16;27.59
70902;BME280;58548;47.210;8.618;2023-05-20T09:13:23;93900.19;;;27.21;27.91
70902;BME280;58548;47.210;8.618;2023-05-20T09:15:51;93909.91;;;27.17;27.32
70902;BME280;58548;47.210;8.618;2023-05-20T09:18:17;93853.31;;;26.77;28.43
70902;BME280;58548;47.210;8.618;2023-05-20T09:20:46;93900.59;;;27.15;28.85
70902;BME280;58548;47.210;8.618;2023-05-20T09:23:12;93903.56;;;27.27;28.69
70902;BME280;58548;47.210;8.618;2023-05-20T09:25:38;93825.75;;;26.90;27.25
70902;BME280;58548;47.210;8.618;2023-05-20T09:28:07;93810.91;;;26.84;27.60
70902;BME280;58548;47.210;8.618;2023-05-20T09:30:33;93870.03;;;27.16;27.78
70902;BME280;58548;47.210;8.618;2023-05-20T09:33:03;93833.78;;;26.90;27.66
70902;BME280;58548;47.210;8.618;2023-05-20T09:35:29;93901.09;;;27.31;27.72
70902;BME280;58548;47.210;8.618;2023-05-20T09:37:57;93901.78;;;27.22;28.09
70902;BME280;58548;47.210;8.618;2023-05-20T09:40:28;93905.75;;;27.25;27.33
70902;BME280;58548;47.210;8.618;2023-05-20T09:43:06;93811.88;;;26.60;28.49
70902;BME280;58548;47.210;8.618;2023-05-20T09:45:38;93910.41;;;27.19;27.84
70902;BME280;58548;47.210;8.618;2023-05-20T09:48:09;93911.09;;;27.25;28.80
70902;BME280;58548;47.210;8.618;2023-05-20T09:50:36;93906.53;;;27.39;28.35
70902;BME280;58548;47.210;8.618;2023-05-20T09:53:09;93828.16;;;27.06;27.62
70902;BME280;58548;47.210;8.618;2023-05-20T09:55:37;93901.78;;;27.50;26.98
70902;BME280;58548;47.210;8.618;2023-05-20T09:58:05;93905.31;;;27.46;27.42
70902;BME280;58548;47.210;8.618;2023-05-20T10:00:32;93898.69;;;27.29;27.62
70902;BME280;58548;47.210;8.618;2023-05-20T10:03:01;93909.59;;;27.33;28.18
70902;BME280;58548;47.210;8.618;2023-05-20T10:05:32;93811.28;;;26.77;27.22
70902;BME280;58548;47.210;8.618;2023-05-20T10:16:47;93801.16;;;26.60;28.17
70902;BME280;58548;47.210;8.618;2023-05-20T10:19:35;93910.31;;;27.24;27.81
70902;BME280;58548;47.210;8.618;2023-05-20T10:22:07;93837.88;;;26.88;27.63
70902;BME280;58548;47.210;8.618;2023-05-20T10:24:37;93790.13;;;26.76;27.73
70902;BME280;58548;47.210;8.618;2023-05-20T10:27:13;93861.34;;;27.33;27.07
70902;BME280;58548;47.210;8.618;2023-05-20T10:29:56;93796.19;;;26.96;27.38
70902;BME280;58548;47.210;8.618;2023-05-20T10:32:30;93806.97;;;27.18;27.31
70902;BME280;58548;47.210;8.618;2023-05-20T10:35:06;93895.13;;;27.84;26.75
70902;BME280;58548;47.210;8.618;2023-05-20T10:37:43;93812.38;;;27.41;26.53
70902;BME280;58548;47.210;8.618;2023-05-20T10:40:18;93806.63;;;27.34;26.57
70902;BME280;58548;47.210;8.618;2023-05-20T10:42:45;93883.19;;;27.91;26.91
70902;BME280;58548;47.210;8.618;2023-05-20T10:45:26;93894.44;;;28.16;27.54
70902;BME280;58548;47.210;8.618;2023-05-20T10:47:54;93793.06;;;27.67;27.15
70902;BME280;58548;47.210;8.618;2023-05-20T10:50:37;93887.22;;;28.25;25.66
70902;BME280;58548;47.210;8.618;2023-05-20T10:53:11;93779.53;;;27.49;26.62
70902;BME280;58548;47.210;8.618;2023-05-20T10:55:49;93801.72;;;27.87;26.58
70902;BME280;58548;47.210;8.618;2023-05-20T10:58:17;93876.63;;;28.20;25.74
70902;BME280;58548;47.210;8.618;2023-05-20T11:00:46;93852.88;;;28.13;26.54
70902;BME280;58548;47.210;8.618;2023-05-20T11:03:13;93861.84;;;28.31;26.12
70902;BME280;58548;47.210;8.618;2023-05-20T11:05:43;93801.34;;;27.79;25.97
70902;BME280;58548;47.210;8.618;2023-05-20T11:08:13;93790.75;;;27.74;25.70
70902;BME280;58548;47.210;8.618;2023-05-20T11:10:44;93808.66;;;27.88;26.65
70902;BME280;58548;47.210;8.618;2023-05-20T11:13:16;93880.13;;;28.52;26.20
70902;BME280;58548;47.210;8.618;2023-05-20T11:15:42;93799.94;;;28.27;26.63
70902;BME280;58548;47.210;8.618;2023-05-20T11:18:12;93879.59;;;29.13;25.71
70902;BME280;58548;47.210;8.618;2023-05-20T11:20:40;93791.22;;;28.71;25.14
70902;BME280;58548;47.210;8.618;2023-05-20T11:23:11;93871.94;;;29.38;25.64
70902;BME280;58548;47.210;8.618;2023-05-20T11:25:40;93872.38;;;29.31;25.15
70902;BME280;58548;47.210;8.618;2023-05-20T11:28:13;93798.59;;;28.97;25.09
70902;BME280;58548;47.210;8.618;2023-05-20T11:30:42;93879.41;;;29.49;24.96
70902;BME280;58548;47.210;8.618;2023-05-20T11:33:11;93860.56;;;29.41;25.47
70902;BME280;58548;47.210;8.618;2023-05-20T11:35:44;93872.94;;;29.59;25.79
70902;BME280;58548;47.210;8.618;2023-05-20T11:38:11;93728.66;;;28.70;25.01
70902;BME280;58548;47.210;8.618;2023-05-20T11:40:42;93808.28;;;29.24;25.63
70902;BME280;58548;47.210;8.618;2023-05-20T11:43:13;93799.28;;;29.11;25.08
70902;BME280;58548;47.210;8.618;2023-05-20T11:45:41;93846.63;;;29.39;24.88
70902;BME280;58548;47.210;8.618;2023-05-20T11:48:08;93869.75;;;29.57;24.58
70902;BME280;58548;47.210;8.618;2023-05-20T11:50:39;93792.94;;;29.07;24.67
70902;BME280;58548;47.210;8.618;2023-05-20T11:53:13;93792.63;;;29.09;25.17
70902;BME280;58548;47.210;8.618;2023-05-20T11:58:28;93779.00;;;28.87;25.41
70902;BME280;58548;47.210;8.618;2023-05-20T12:00:54;93859.00;;;29.57;25.04
70902;BME280;58548;47.210;8.618;2023-05-20T12:03:20;93782.97;;;29.25;24.97
70902;BME280;58548;47.210;8.618;2023-05-20T12:05:46;93789.19;;;29.34;25.02
70902;BME280;58548;47.210;8.618;2023-05-20T12:08:17;93769.75;;;29.38;25.12
70902;BME280;58548;47.210;8.618;2023-05-20T12:10:43;93777.34;;;29.53;24.77
70902;BME280;58548;47.210;8.618;2023-05-20T12:13:12;93845.84;;;30.26;24.89
70902;BME280;58548;47.210;8.618;2023-05-20T12:15:40;93786.31;;;29.84;24.38
70902;BME280;58548;47.210;8.618;2023-05-20T12:18:06;93851.97;;;30.44;24.34
70902;BME280;58548;47.210;8.618;2023-05-20T12:20:38;93858.44;;;30.52;24.48
70902;BME280;58548;47.210;8.618;2023-05-20T12:23:09;93833.59;;;30.46;24.70
70902;BME280;58548;47.210;8.618;2023-05-20T12:25:37;93777.53;;;30.31;24.57
70902;BME280;58548;47.210;8.618;2023-05-20T12:28:03;93851.28;;;31.04;24.11
70902;BME280;58548;47.210;8.618;2023-05-20T12:30:31;93819.53;;;31.09;23.92
70902;BME280;58548;47.210;8.618;2023-05-20T12:33:00;93785.78;;;31.03;24.80
70902;BME280;58548;47.210;8.618;2023-05-20T12:35:41;93845.72;;;31.60;23.69
70902;BME280;58548;47.210;8.618;2023-05-20T12:38:13;93844.72;;;31.73;23.60
70902;BME280;58548;47.210;8.618;2023-05-20T12:40:41;93845.88;;;31.85;22.81
70902;BME280;58548;47.210;8.618;2023-05-20T12:43:07;93843.19;;;31.85;23.73
70902;BME280;58548;47.210;8.618;2023-05-20T12:45:32;93826.94;;;31.72;23.54
70902;BME280;58548;47.210;8.618;2023-05-20T12:48:01;93762.94;;;31.31;23.65
70902;BME280;58548;47.210;8.618;2023-05-20T12:50:29;93840.56;;;31.76;23.14
70902;BME280;58548;47.210;8.618;2023-05-20T12:52:55;93815.34;;;31.51;23.77
70902;BME280;58548;47.210;8.618;2023-05-20T12:55:26;93842.78;;;31.53;23.51
70902;BME280;58548;47.210;8.618;2023-05-20T12:57:53;93830.44;;;31.22;23.87
70902;BME280;58548;47.210;8.618;2023-05-20T13:00:19;93774.56;;;30.71;24.04
70902;BME280;58548;47.210;8.618;2023-05-20T13:02:47;93833.53;;;31.03;24.14
70902;BME280;58548;47.210;8.618;2023-05-20T13:05:14;93775.69;;;30.61;24.25
70902;BME280;58548;47.210;8.618;2023-05-20T13:07:39;93836.41;;;30.97;24.30
70902;BME280;58548;47.210;8.618;2023-05-20T13:10:09;93848.03;;;30.89;24.66
70902;BME280;58548;47.210;8.618;2023-05-20T13:12:36;93847.13;;;30.76;24.32
70902;BME280;58548;47.210;8.618;2023-05-20T13:15:07;93850.66;;;30.68;24.78
70902;BME280;58548;47.210;8.618;2023-05-20T13:17:36;93851.16;;;30.61;24.92
70902;BME280;58548;47.210;8.618;2023-05-20T13:20:05;93747.53;;;29.93;25.36
70902;BME280;58548;47.210;8.618;2023-05-20T13:22:33;93838.16;;;30.46;25.40